Route Details

Aircraft Information
Group: European Fleet
Types: A30F, A31F, B738
Route Data
Distance: 612nm
Duration: 2h 00m
Origin METAR: EDDK 100550Z AUTO 06004KT 8000 OVC019 M02/M04 Q1009 NOSIG
Dest. METAR: LEBL 100600Z 30003KT 9999 SCT035 BKN045 12/10 Q1001 NOSIG
Freight Data
(for Dec 10, 2022)
Load Factor:
45%
Manifested Cargo: 41,313lbs
Financial History
Total Freight: 137,683lbs
Average Load: 0lbs/flt
Fuel Used: 44,281lbs
Avg. Fuel Used: 0lbs/flt
Fuel Expense: $23,213
Avg. Fuel Expense: $0
Avg. Fuel Cost: $0/lbs
Total Gross Income: $316,671
Pilot Pay: $538
Total Expenses: $73,139
Total Revenue: $218,501
Average Revenue: $0

Capitol Logistics 514




EDDK
Cologne Bonn Airport
Cologne, DE
LEBL
Barcelona International Airport
Barcelona, ES